Ashley Falls, Massachusetts
Current Conditions -  °F | °C
As of 9:54 PM on Tuesday 25 Nov 2014 (Local Time) from KPSF Reporting Station
Clear Clear  
Wind Chill: 34°   Ceiling: Unl
Heat Index: 40°   Visibility: 10mi
Dew Point: 27°   Wind: 8mph
Humidity: 60%   Direction: 310°NW
Pressure: 30.07"   Gusts: NA
Location:  42.06°N, 73.34°W
Report Text: KPSF 260254Z AUTO 31007KT 10SM CLR 04/M03 A3007 RMK AO2 SLP178 T00441028 51027
Loading
Personal Weather Stations






























Interactive Weather Map New forecast layout! Learn more

10-Day Weather Forecast

Advertisements
Track Severe Weather on mobile